Time;durP1;ratioP1;P1;durP2;ratioP2;P2;SDS_P1;SDS_P2;PMS_P1;PMS_P2;Temp;Humidity;BMP_temperature;BMP_pressure;BME280_temperature;BME280_humidity;BME280_pressure;Samples;Min_cycle;Max_cycle;Signal;HPM_P1;HPM_P2
2022/05/01 00:02:34;;;;;;;24.73;14.70;;;;;;;4.04;66.33;99413.52;2175625;82;20955;-85
2022/05/01 00:05:34;;;;;;;21.67;14.57;;;;;;;3.99;66.46;99408.95;2175886;80;21035;-85
2022/05/01 00:08:35;;;;;;;20.07;13.97;;;;;;;3.99;66.62;99417.59;2177727;82;20968;-84
2022/05/01 00:11:35;;;;;;;32.47;15.13;;;;;;;3.96;66.71;99416.56;2177531;82;21464;-85
2022/05/01 00:14:36;;;;;;;30.90;16.43;;;;;;;3.96;66.71;99416.56;2177376;82;20983;-84
2022/05/01 00:17:37;;;;;;;22.33;14.73;;;;;;;3.93;66.71;99419.00;2176425;82;20979;-84
2022/05/01 00:20:39;;;;;;;26.87;15.57;;;;;;;3.91;66.79;99418.92;2177187;82;20943;-84
2022/05/01 00:23:42;;;;;;;23.70;15.57;;;;;;;3.90;67.00;99417.56;2216668;79;20964;-84
2022/05/01 00:26:42;;;;;;;20.83;15.37;;;;;;;3.87;66.99;99413.14;2177585;82;20955;-84
2022/05/01 00:29:42;;;;;;;22.43;14.93;;;;;;;3.86;67.16;99414.36;2177828;80;20979;-84
2022/05/01 00:39:21;;;;;;;23.53;15.77;;;;;;;3.72;67.49;99413.30;2177883;82;21013;-84
2022/05/01 00:42:22;;;;;;;27.50;16.20;;;;;;;3.67;67.62;99412.60;2177885;82;21364;-84
2022/05/01 00:45:22;;;;;;;24.37;15.67;;;;;;;3.64;67.55;99407.29;2177726;82;20892;-83
2022/05/01 00:48:22;;;;;;;23.03;14.77;;;;;;;3.58;67.52;99406.59;2177758;82;21014;-84
2022/05/01 00:51:22;;;;;;;37.63;20.13;;;;;;;3.52;67.83;99407.59;2178021;82;20901;-84
2022/05/01 00:54:23;;;;;;;40.27;22.37;;;;;;;3.48;68.07;99400.50;2177791;82;20936;-84
2022/05/01 00:57:24;;;;;;;55.80;28.33;;;;;;;3.42;68.10;99397.19;2177822;82;20932;-84
2022/05/01 01:00:24;;;;;;;63.20;29.93;;;;;;;3.39;68.18;99401.31;2177856;82;21047;-84
2022/05/01 01:03:24;;;;;;;55.33;25.50;;;;;;;3.36;68.25;99398.18;2176697;80;20932;-83
2022/05/01 01:06:24;;;;;;;49.23;24.97;;;;;;;3.33;68.40;99395.86;2164190;82;20900;-84
2022/05/01 01:09:25;;;;;;;42.77;24.50;;;;;;;3.31;68.62;99398.77;2164169;82;21442;-83
2022/05/01 01:15:45;;;;;;;52.33;26.00;;;;;;;3.29;68.59;99395.22;2164104;82;20965;-83
2022/05/01 01:18:45;;;;;;;50.17;27.23;;;;;;;3.29;68.68;99399.09;2164004;82;20959;-83
2022/05/01 01:21:45;;;;;;;42.50;22.23;;;;;;;3.28;68.91;99393.45;2164389;82;20988;-83
2022/05/01 01:24:46;;;;;;;46.77;24.00;;;;;;;3.25;68.70;99393.30;2164616;82;21012;-84
2022/05/01 01:27:46;;;;;;;40.20;22.67;;;;;;;3.21;68.54;99392.27;2164308;82;20968;-83
2022/05/01 01:34:06;;;;;;;38.77;21.03;;;;;;;3.16;69.02;99394.62;2164441;82;20987;-83
2022/05/01 01:37:07;;;;;;;38.37;21.23;;;;;;;3.11;68.99;99385.77;2164329;82;20995;-84
2022/05/01 01:40:06;;;;;;;38.77;20.83;;;;;;;3.08;69.01;99393.36;2164230;82;21426;-84
2022/05/01 01:43:07;;;;;;;36.03;20.33;;;;;;;3.03;69.09;99396.11;2164222;82;20955;-84
2022/05/01 01:46:07;;;;;;;35.43;20.77;;;;;;;3.00;69.33;99393.38;2164196;82;20920;-83
2022/05/01 01:49:08;;;;;;;32.07;19.87;;;;;;;2.98;69.51;99388.55;2164687;82;21008;-83
2022/05/01 01:52:08;;;;;;;32.03;19.47;;;;;;;2.98;69.52;99387.26;2164399;82;20905;-84
2022/05/01 01:55:08;;;;;;;35.43;20.90;;;;;;;2.94;69.53;99384.05;2164353;82;20944;-83
2022/05/01 01:58:09;;;;;;;36.43;21.43;;;;;;;2.94;69.53;99384.05;2164245;82;21355;-84
2022/05/01 02:01:10;;;;;;;29.93;17.93;;;;;;;2.92;69.79;99382.20;2164327;82;21052;-84
2022/05/01 02:04:10;;;;;;;35.93;18.83;;;;;;;2.91;69.33;99386.88;2164522;80;20952;-84
2022/05/01 02:07:10;;;;;;;31.80;19.67;;;;;;;2.87;69.23;99389.70;2164424;82;21356;-84
2022/05/01 02:10:10;;;;;;;31.10;19.23;;;;;;;2.81;69.37;99391.56;2164365;82;20992;-84
2022/05/01 02:13:11;;;;;;;35.03;20.00;;;;;;;2.77;69.57;99383.20;2164343;82;20925;-85
2022/05/01 02:16:13;;;;;;;32.13;19.10;;;;;;;2.74;69.43;99385.62;2191139;80;20980;-84
2022/05/01 02:19:14;;;;;;;35.73;21.10;;;;;;;2.73;69.46;99381.67;2164700;82;20929;-85
2022/05/01 02:22:14;;;;;;;31.83;20.03;;;;;;;2.74;69.96;99384.73;2165231;82;20976;-85
2022/05/01 02:25:14;;;;;;;31.73;19.43;;;;;;;2.79;69.79;99381.98;2165303;82;20965;-86
2022/05/01 02:28:15;;;;;;;37.23;21.43;;;;;;;2.80;69.77;99378.59;2164945;82;20972;-86
2022/05/01 02:31:17;;;;;;;38.57;21.20;;;;;;;2.75;70.04;99382.63;2164065;82;21050;-85
2022/05/01 02:34:16;;;;;;;33.77;20.97;;;;;;;2.72;70.25;99385.94;2163989;82;21016;-84
2022/05/01 02:37:18;;;;;;;36.87;19.90;;;;;;;2.72;69.89;99383.77;2163221;82;20995;-85
2022/05/01 02:40:18;;;;;;;36.37;19.77;;;;;;;2.63;69.57;99380.31;2190403;80;20967;-85
2022/05/01 02:43:19;;;;;;;32.67;20.00;;;;;;;2.55;69.56;99380.30;2164466;82;20976;-85
2022/05/01 02:46:19;;;;;;;34.03;21.03;;;;;;;2.48;69.97;99376.52;2165267;82;20913;-85
2022/05/01 02:49:21;;;;;;;33.70;20.57;;;;;;;2.49;70.35;99380.86;2165251;82;21024;-85
2022/05/01 02:52:23;;;;;;;37.63;20.47;;;;;;;2.49;70.46;99376.99;2205513;80;20985;-85
2022/05/01 02:55:27;;;;;;;35.33;20.00;;;;;;;2.48;70.27;99373.05;2172137;81;21324;-85
2022/05/01 02:58:28;;;;;;;35.83;20.93;;;;;;;2.44;70.02;99370.72;2154706;82;21427;-85
2022/05/01 03:01:31;;;;;;;35.37;20.10;;;;;;;2.38;70.02;99366.94;2158390;82;21015;-85
2022/05/01 03:04:34;;;;;;;37.63;20.10;;;;;;;2.33;70.30;99369.67;2191840;80;20968;-85
2022/05/01 03:07:34;;;;;;;34.47;20.40;;;;;;;2.29;70.58;99369.92;2165320;82;20968;-85
2022/05/01 03:10:34;;;;;;;35.13;21.00;;;;;;;2.29;70.62;99362.19;2165247;82;20972;-85
2022/05/01 03:13:38;;;;;;;35.37;20.83;;;;;;;2.24;70.43;99360.66;2165020;82;20979;-86
2022/05/01 03:16:42;;;;;;;;;;;;;;;2.21;70.56;99364.77;2168208;82;20953;-85
2022/05/01 03:23:02;;;;;;;38.93;21.00;;;;;;;2.18;70.91;99365.48;2164219;82;21355;-85
2022/05/01 03:26:02;;;;;;;39.47;20.97;;;;;;;2.30;71.14;99367.83;2164681;82;20924;-84
2022/05/01 03:29:04;;;;;;;34.17;20.37;;;;;;;2.36;70.74;99377.56;2164379;82;21000;-84
2022/05/01 03:32:08;;;;;;;40.73;22.60;;;;;;;2.35;70.80;99374.51;2163228;82;21461;-85
2022/05/01 03:35:09;;;;;;;39.03;22.07;;;;;;;2.36;70.91;99382.31;2139672;82;21328;-85
2022/05/01 03:38:11;;;;;;;41.70;22.17;;;;;;;2.40;70.85;99377.80;2189041;80;20959;-84
2022/05/01 03:41:12;;;;;;;39.33;24.43;;;;;;;2.42;70.73;99377.48;2162594;82;20951;-84
2022/05/01 03:44:12;;;;;;;40.23;22.40;;;;;;;2.47;70.68;99376.03;2163096;82;20931;-84
2022/05/01 03:47:12;;;;;;;40.03;22.47;;;;;;;2.51;70.74;99374.50;2163459;82;21327;-84
2022/05/01 03:50:13;;;;;;;35.40;21.17;;;;;;;2.56;70.85;99372.64;2164515;82;20947;-84
2022/05/01 03:53:16;;;;;;;37.63;21.90;;;;;;;2.62;70.82;99375.08;2164487;82;20971;-84
2022/05/01 03:56:17;;;;;;;30.13;20.77;;;;;;;2.64;70.52;99370.89;2164238;82;20936;-84
2022/05/01 03:59:17;;;;;;;38.63;21.83;;;;;;;2.67;70.51;99372.34;2163903;82;21331;-84
2022/05/01 04:02:17;;;;;;;37.10;21.60;;;;;;;2.71;70.60;99376.44;2163972;82;21032;-84
2022/05/01 04:05:18;;;;;;;39.63;21.73;;;;;;;2.86;70.74;99384.06;2165203;79;20980;-84
2022/05/01 04:08:18;;;;;;;32.53;21.13;;;;;;;2.86;70.74;99384.06;2164704;82;21406;-84
2022/05/01 04:11:19;;;;;;;35.80;21.10;;;;;;;2.92;70.46;99380.50;2164350;82;21312;-84
2022/05/01 04:14:22;;;;;;;38.27;22.67;;;;;;;3.01;70.52;99380.97;2164527;81;20909;-84
2022/05/01 04:17:25;;;;;;;37.60;23.13;;;;;;;3.12;70.48;99375.05;2164588;82;20928;-84
2022/05/01 04:20:25;;;;;;;39.77;24.90;;;;;;;3.26;70.52;99382.17;2276117;77;20920;-85
2022/05/01 04:23:28;;;;;;;42.20;23.63;;;;;;;3.41;70.49;99381.22;2248643;79;20966;-85
2022/05/01 04:26:27;;;;;;;52.43;30.77;;;;;;;3.56;70.32;99378.53;2226324;79;21406;-84
2022/05/01 04:29:37;;;;;;;45.10;27.40;;;;;;;3.77;70.48;99382.13;2248380;79;20904;-84
2022/05/01 04:32:37;;;;;;;45.53;28.33;;;;;;;4.01;70.61;99376.33;2248348;79;20971;-84
2022/05/01 04:35:38;;;;;;;45.30;28.83;;;;;;;4.29;70.64;99383.63;2248358;79;20912;-84
2022/05/01 04:38:38;;;;;;;44.73;26.33;;;;;;;4.58;70.53;99382.38;2248662;79;20903;-84
2022/05/01 04:41:40;;;;;;;42.13;25.10;;;;;;;4.79;70.17;99385.89;2247968;79;20872;-84
2022/05/01 04:44:43;;;;;;;42.78;24.90;;;;;;;4.97;70.18;99384.50;2189217;80;20987;-83
2022/05/01 04:47:45;;;;;;;43.20;24.90;;;;;;;5.11;69.59;99386.84;2242557;79;20900;-84
2022/05/01 04:50:52;;;;;;;41.23;24.73;;;;;;;5.25;69.45;99384.86;2223013;79;21018;-84
2022/05/01 04:53:55;;;;;;;45.37;28.70;;;;;;;5.42;69.12;99386.84;2226586;79;20955;-85
2022/05/01 04:57:13;;;;;;;70.33;41.17;;;;;;;5.67;68.92;99388.72;2248793;79;20947;-84
2022/05/01 05:00:11;;;;;;;72.27;40.00;;;;;;;5.96;68.11;99391.18;2247724;79;20926;-84
2022/05/01 05:03:12;;;;;;;61.67;35.93;;;;;;;6.22;67.46;99390.50;2248599;79;20872;-84
2022/05/01 05:06:12;;;;;;;51.53;31.80;;;;;;;6.47;66.85;99388.81;2247016;77;20995;-84
2022/05/01 05:12:32;;;;;;;41.07;27.83;;;;;;;6.93;65.68;99387.02;2246907;78;21518;-83
2022/05/01 05:15:32;;;;;;;41.30;26.97;;;;;;;7.25;65.20;99386.86;2245340;79;20998;-84
2022/05/01 05:18:32;;;;;;;40.93;25.03;;;;;;;7.55;64.47;99380.90;2245800;79;21258;-84
2022/05/01 05:21:32;;;;;;;36.70;24.93;;;;;;;7.91;64.03;99387.28;2246257;79;21318;-84
2022/05/01 05:24:33;;;;;;;35.20;24.17;;;;;;;8.28;63.28;99385.38;2245593;78;21405;-84
2022/05/01 05:27:40;;;;;;;34.57;22.60;;;;;;;8.61;62.31;99382.01;2246405;79;21009;-84
2022/05/01 05:30:41;;;;;;;32.28;21.50;;;;;;;8.81;61.31;99384.78;2199398;79;21034;-84
2022/05/01 05:33:41;;;;;;;35.30;22.20;;;;;;;8.96;60.74;99380.83;2225279;79;21347;-84
2022/05/01 05:39:46;;;;;;;25.55;19.00;;;;;;;9.41;59.24;99379.82;2177808;79;21389;-84
2022/05/01 05:42:50;;;;;;;28.43;18.30;;;;;;;9.73;58.47;99387.15;2226400;79;20967;-85
2022/05/01 05:45:52;;;;;;;27.07;17.83;;;;;;;10.45;58.50;99385.78;2249367;79;20947;-84
2022/05/01 05:48:54;;;;;;;23.55;17.10;;;;;;;10.77;56.39;99383.40;2201834;79;21002;-84
2022/05/01 05:51:55;;;;;;;25.47;17.70;;;;;;;10.99;55.90;99382.50;2249049;79;20947;-84
2022/05/01 05:54:55;;;;;;;21.60;16.47;;;;;;;11.23;55.10;99388.17;2249234;79;21287;-85
2022/05/01 05:57:55;;;;;;;23.10;15.75;;;;;;;11.51;54.42;99384.33;2249104;79;20915;-85
2022/05/01 06:00:56;;;;;;;22.85;16.10;;;;;;;11.71;53.94;99383.34;2249607;79;21014;-85
2022/05/01 06:03:56;;;;;;;24.65;15.95;;;;;;;11.97;53.50;99383.77;2249678;79;20958;-85
2022/05/01 06:06:57;;;;;;;21.73;15.55;;;;;;;12.18;52.90;99385.42;2249824;77;20964;-84
2022/05/01 06:09:57;;;;;;;22.65;15.10;;;;;;;12.46;52.40;99387.98;2249289;79;20919;-84
2022/05/01 06:12:57;;;;;;;20.90;15.03;;;;;;;12.81;52.01;99380.55;2249153;79;21307;-84
2022/05/01 06:15:58;;;;;;;22.85;15.28;;;;;;;13.17;51.39;99385.37;2248883;79;20903;-84
2022/05/01 06:18:59;;;;;;;21.85;15.40;;;;;;;13.58;51.15;99383.55;2249245;79;20927;-85
2022/05/01 06:21:59;;;;;;;22.10;14.80;;;;;;;13.82;50.76;99379.81;2248675;79;21319;-84
2022/05/01 06:24:59;;;;;;;18.65;13.95;;;;;;;14.05;50.48;99386.99;2248986;79;20950;-84
2022/05/01 06:27:59;;;;;;;20.72;14.43;;;;;;;14.21;50.34;99373.09;2248614;79;20896;-84
2022/05/01 06:31:00;;;;;;;17.30;13.10;;;;;;;14.37;50.00;99374.93;2248793;79;20954;-84
2022/05/01 06:34:00;;;;;;;17.45;12.93;;;;;;;14.62;49.24;99372.01;2248620;79;20934;-84
2022/05/01 06:37:01;;;;;;;14.50;11.15;;;;;;;14.77;49.05;99377.79;2248800;79;20876;-84
2022/05/01 06:40:01;;;;;;;13.30;11.30;;;;;;;14.89;48.01;99376.52;2248692;79;21323;-84
2022/05/01 06:43:01;;;;;;;10.78;8.95;;;;;;;15.09;48.30;99376.13;2248547;79;20931;-84
2022/05/01 06:46:02;;;;;;;12.23;9.03;;;;;;;15.38;46.60;99373.98;2248249;79;20939;-84
2022/05/01 06:49:02;;;;;;;11.28;7.50;;;;;;;15.57;46.76;99373.11;2248634;79;20943;-84
2022/05/01 06:52:03;;;;;;;16.48;6.87;;;;;;;15.90;45.38;99377.11;2248598;79;20880;-84
2022/05/01 06:55:03;;;;;;;9.25;5.67;;;;;;;16.30;43.85;99373.08;2249067;79;20956;-84
2022/05/01 06:58:04;;;;;;;8.53;4.92;;;;;;;16.65;42.94;99376.06;2249029;79;20916;-83
2022/05/01 07:01:05;;;;;;;9.15;5.40;;;;;;;16.93;39.86;99376.41;2248714;79;21019;-85
2022/05/01 07:04:04;;;;;;;6.47;5.10;;;;;;;17.17;39.50;99372.30;2248704;79;20884;-84
2022/05/01 07:07:04;;;;;;;5.87;5.20;;;;;;;17.44;39.03;99371.70;2247440;77;20904;-85
2022/05/01 07:10:05;;;;;;;6.28;5.30;;;;;;;17.78;39.13;99374.98;2248009;79;20955;-84
2022/05/01 07:13:05;;;;;;;7.95;6.28;;;;;;;18.02;38.31;99373.44;2247941;79;21386;-86
2022/05/01 07:16:06;;;;;;;7.22;6.22;;;;;;;18.40;37.62;99370.42;2248402;79;20954;-83
2022/05/01 07:19:06;;;;;;;12.05;5.97;;;;;;;18.73;37.15;99366.98;2248765;79;20928;-84
2022/05/01 07:22:06;;;;;;;9.48;6.90;;;;;;;19.00;35.83;99366.61;2248429;79;21001;-84
2022/05/01 07:25:07;;;;;;;11.95;7.75;;;;;;;19.11;35.45;99361.20;2248304;79;20946;-84
2022/05/01 07:28:07;;;;;;;10.38;8.35;;;;;;;19.26;34.05;99364.06;2248279;79;21001;-84
2022/05/01 07:31:17;;;;;;;9.35;7.30;;;;;;;19.21;32.07;99359.29;2248288;79;20963;-85
2022/05/01 07:34:20;;;;;;;16.62;8.60;;;;;;;19.22;33.46;99355.75;2248540;79;21305;-85
2022/05/01 07:37:24;;;;;;;13.75;9.13;;;;;;;19.28;32.79;99355.20;2218575;79;20904;-85
2022/05/01 07:40:24;;;;;;;8.85;7.80;;;;;;;19.56;33.82;99354.80;2248981;79;20940;-85
2022/05/01 07:43:24;;;;;;;11.33;8.20;;;;;;;19.91;33.10;99360.37;2248588;79;20915;-85
2022/05/01 07:46:24;;;;;;;10.65;8.88;;;;;;;20.04;32.24;99362.39;2249981;79;20956;-85
2022/05/01 07:49:24;;;;;;;11.18;8.25;;;;;;;20.10;31.19;99362.27;2249402;79;20964;-85
2022/05/01 07:52:25;;;;;;;9.30;7.75;;;;;;;20.19;31.91;99362.10;2248750;79;20927;-87
2022/05/01 07:55:25;;;;;;;11.15;8.48;;;;;;;20.33;30.98;99360.52;2249200;79;20931;-85
2022/05/01 07:58:26;;;;;;;8.90;7.75;;;;;;;20.16;30.82;99360.84;2248744;79;20987;-85
2022/05/01 08:01:26;;;;;;;9.25;8.10;;;;;;;20.32;31.00;99358.31;2248604;79;21002;-84
2022/05/01 08:04:29;;;;;;;11.73;7.70;;;;;;;20.58;30.44;99362.26;2249271;79;20944;-85
2022/05/01 08:07:30;;;;;;;9.83;7.53;;;;;;;20.83;30.42;99351.59;2243956;77;20987;-85
2022/05/01 08:10:32;;;;;;;10.45;7.85;;;;;;;20.93;29.42;99341.64;2242381;79;20932;-85
2022/05/01 08:13:30;;;;;;;9.80;7.70;;;;;;;20.62;28.92;99344.05;2241581;79;20952;-84
2022/05/01 08:16:31;;;;;;;9.75;6.87;;;;;;;20.45;29.52;99343.52;2241717;79;20936;-84
2022/05/01 08:22:50;;;;;;;11.80;7.10;;;;;;;20.40;29.75;99333.01;2242099;79;20948;-83
2022/05/01 08:25:51;;;;;;;13.72;6.83;;;;;;;20.20;29.48;99337.80;2242019;79;21318;-83
2022/05/01 08:28:51;;;;;;;10.88;7.08;;;;;;;20.02;29.78;99333.72;2242192;79;20991;-84
2022/05/01 08:31:51;;;;;;;9.78;7.05;;;;;;;20.09;29.78;99339.33;2242079;79;20960;-84
2022/05/01 08:34:52;;;;;;;12.80;7.75;;;;;;;20.16;29.62;99334.33;2242347;79;21296;-83
2022/05/01 08:37:52;;;;;;;7.55;6.72;;;;;;;20.35;29.74;99333.52;2242787;79;20900;-83
2022/05/01 08:40:53;;;;;;;8.18;6.92;;;;;;;20.41;29.25;99332.10;2243096;79;20920;-83
2022/05/01 08:43:53;;;;;;;10.78;6.55;;;;;;;20.31;30.05;99327.86;2242165;79;20869;-84
2022/05/01 08:46:53;;;;;;;7.83;6.05;;;;;;;20.41;29.73;99320.63;2242600;79;20892;-83
2022/05/01 08:49:58;;;;;;;9.00;6.80;;;;;;;20.61;29.65;99318.43;2243152;79;20936;-84
2022/05/01 08:52:57;;;;;;;11.70;7.30;;;;;;;20.59;28.99;99315.81;2242976;79;20972;-84
2022/05/01 08:55:58;;;;;;;10.38;6.37;;;;;;;20.57;28.99;99312.77;2242509;79;20928;-85
2022/05/01 08:58:58;;;;;;;12.68;6.60;;;;;;;20.86;28.53;99313.50;2242866;79;20923;-84
2022/05/01 09:01:59;;;;;;;7.47;6.65;;;;;;;20.97;28.30;99311.48;2242005;79;21413;-84
2022/05/01 09:04:59;;;;;;;7.67;6.85;;;;;;;21.07;28.23;99311.69;2242429;79;20907;-86
2022/05/01 09:07:59;;;;;;;8.38;6.95;;;;;;;21.15;28.52;99305.73;2253830;77;21019;-84
2022/05/01 09:12:49;;;;;;;6.95;6.20;;;;;;;21.28;27.80;99301.92;2256315;79;21326;-86
2022/05/01 09:14:00;;;;;;;12.00;7.15;;;;;;;21.24;27.63;99304.69;2256317;79;20919;-83
2022/05/01 09:17:01;;;;;;;9.35;6.58;;;;;;;21.36;27.73;99292.44;2256063;79;20967;-84
2022/05/01 09:20:04;;;;;;;8.45;7.05;;;;;;;21.42;26.75;99288.75;2226378;79;20997;-83
2022/05/01 09:23:06;;;;;;;10.43;7.00;;;;;;;21.42;26.75;99288.75;2225963;79;20915;-84
2022/05/01 09:26:15;;;;;;;5.92;5.42;;;;;;;21.16;26.99;99290.23;2256404;79;20915;-83
2022/05/01 09:29:15;;;;;;;7.72;5.83;;;;;;;21.10;26.96;99289.50;2255982;79;20909;-84
2022/05/01 09:32:16;;;;;;;7.45;6.70;;;;;;;21.01;27.36;99281.77;2256576;79;20998;-84
2022/05/01 09:35:18;;;;;;;8.20;6.05;;;;;;;21.11;27.71;99283.29;2256173;79;21287;-84
2022/05/01 09:38:22;;;;;;;9.05;6.37;;;;;;;21.27;27.46;99288.22;2225244;79;21346;-84
2022/05/01 09:41:22;;;;;;;10.03;6.78;;;;;;;21.69;27.43;99287.21;2225875;79;20962;-85
2022/05/01 09:44:23;;;;;;;8.25;6.40;;;;;;;21.88;26.60;99286.69;2256851;79;20888;-83
2022/05/01 09:47:23;;;;;;;7.22;6.47;;;;;;;21.89;26.77;99289.75;2256295;79;21441;-84
2022/05/01 09:50:26;;;;;;;9.50;6.03;;;;;;;21.78;26.73;99283.86;2256443;79;20892;-84
2022/05/01 09:53:27;;;;;;;6.08;5.47;;;;;;;21.85;26.55;99281.45;2225452;79;21342;-83
2022/05/01 09:56:27;;;;;;;8.68;5.67;;;;;;;21.71;26.79;99277.42;2256258;79;20923;-84
2022/05/01 09:59:27;;;;;;;8.43;5.62;;;;;;;21.43;27.38;99266.14;2256036;79;21010;-84
2022/05/01 10:02:28;;;;;;;10.00;5.85;;;;;;;21.43;27.24;99275.44;2255104;79;21017;-83
2022/05/01 10:05:28;;;;;;;10.65;5.55;;;;;;;21.60;27.06;99271.89;2256026;79;21323;-83
2022/05/01 10:08:29;;;;;;;7.58;5.97;;;;;;;21.71;26.11;99265.46;2256151;77;20999;-84
2022/05/01 10:11:29;;;;;;;6.28;5.22;;;;;;;21.72;26.20;99265.88;2256264;79;20995;-84
2022/05/01 10:14:29;;;;;;;6.87;5.22;;;;;;;21.85;26.12;99257.98;2256174;79;20920;-83
2022/05/01 10:17:30;;;;;;;7.80;5.70;;;;;;;22.01;26.15;99256.66;2256568;79;20923;-84
2022/05/01 10:20:30;;;;;;;8.40;5.75;;;;;;;22.22;25.25;99262.73;2256800;79;20896;-83
2022/05/01 10:23:31;;;;;;;6.58;5.28;;;;;;;22.41;24.86;99263.06;2256464;79;20915;-84
2022/05/01 10:26:38;;;;;;;6.55;5.72;;;;;;;22.42;24.97;99259.95;2188524;79;20983;-84
2022/05/01 10:32:20;;;;;;;6.83;5.00;;;;;;;22.43;25.46;99253.70;2209260;80;20979;-83
2022/05/01 10:32:42;;;;;;;5.40;4.90;;;;;;;22.78;24.96;99252.20;2271776;78;20979;-83
2022/05/01 10:35:45;;;;;;;5.45;4.20;;;;;;;22.85;24.57;99247.14;2256585;79;20908;-85
2022/05/01 10:38:43;;;;;;;8.25;4.28;;;;;;;23.06;23.23;99249.58;2256170;79;20915;-83
2022/05/01 10:41:44;;;;;;;3.87;3.58;;;;;;;23.27;22.87;99249.33;2255932;79;20888;-84
2022/05/01 10:44:47;;;;;;;5.65;4.08;;;;;;;23.59;22.81;99246.11;2225035;79;21524;-84
2022/05/01 10:47:46;;;;;;;6.80;4.83;;;;;;;23.57;22.54;99245.28;2255949;79;20875;-84
2022/05/01 10:50:49;;;;;;;5.60;4.90;;;;;;;23.46;23.01;99245.16;2255874;78;20951;-83
2022/05/01 10:53:50;;;;;;;6.30;4.90;;;;;;;23.58;22.93;99238.58;2256046;79;20930;-83
2022/05/01 10:56:48;;;;;;;7.47;4.65;;;;;;;23.58;23.12;99237.23;2256087;79;20919;-85
2022/05/01 10:59:48;;;;;;;4.35;3.92;;;;;;;23.62;22.89;99240.20;2256248;79;21007;-83
2022/05/01 11:02:48;;;;;;;6.10;3.80;;;;;;;23.58;22.45;99239.91;2256627;79;21378;-83
2022/05/01 11:05:52;;;;;;;4.92;3.90;;;;;;;23.60;22.14;99231.86;2256758;79;20912;-84
2022/05/01 11:08:50;;;;;;;6.47;3.62;;;;;;;23.68;21.70;99239.99;2256178;77;20975;-84
2022/05/01 11:11:50;;;;;;;4.92;3.50;;;;;;;23.70;21.61;99238.61;2256590;79;20975;-85
2022/05/01 11:14:50;;;;;;;5.50;4.05;;;;;;;23.60;21.46;99227.86;2256136;79;20903;-84
2022/05/01 11:17:50;;;;;;;8.53;4.03;;;;;;;23.64;21.44;99231.70;2256631;79;20908;-83
2022/05/01 11:20:51;;;;;;;4.40;4.00;;;;;;;23.60;21.30;99224.73;2256261;79;20923;-84
2022/05/01 11:23:51;;;;;;;5.22;3.80;;;;;;;23.39;21.67;99229.41;2256212;79;20980;-83
2022/05/01 11:26:52;;;;;;;6.20;4.10;;;;;;;23.23;21.98;99218.39;2256562;79;20947;-83
2022/05/01 11:29:52;;;;;;;4.80;3.58;;;;;;;23.13;22.36;99226.28;2256145;79;20944;-83
2022/05/01 11:32:54;;;;;;;5.10;3.62;;;;;;;23.14;21.89;99220.03;2256379;79;20971;-83
2022/05/01 11:35:55;;;;;;;7.33;4.20;;;;;;;23.08;21.53;99220.23;2225348;79;20918;-83
2022/05/01 11:38:56;;;;;;;6.30;3.52;;;;;;;23.15;22.11;99217.78;2256077;79;20892;-84
2022/05/01 11:42:00;;;;;;;3.25;3.05;;;;;;;23.44;21.89;99213.70;2256210;79;20884;-84
2022/05/01 11:45:00;;;;;;;4.00;3.60;;;;;;;23.71;21.75;99210.56;2255471;79;21354;-84
2022/05/01 11:48:00;;;;;;;4.12;3.70;;;;;;;23.78;20.54;99214.75;2256404;79;20911;-83
2022/05/01 11:51:01;;;;;;;4.58;3.40;;;;;;;23.43;20.98;99214.63;2256172;79;20930;-84
2022/05/01 11:54:01;;;;;;;6.17;4.20;;;;;;;23.32;21.84;99211.89;2257097;79;20956;-82
2022/05/01 12:03:43;;;;;;;5.75;4.20;;;;;;;22.74;21.70;99194.67;2255938;79;21004;-83
2022/05/01 12:06:44;;;;;;;4.83;3.52;;;;;;;22.90;22.30;99195.55;2256370;77;20942;-83
2022/05/01 12:09:44;;;;;;;5.37;3.52;;;;;;;22.83;21.83;99204.19;2256641;79;20923;-84
2022/05/01 12:12:44;;;;;;;7.75;3.95;;;;;;;22.87;22.49;99201.84;2256416;79;21279;-83
2022/05/01 12:15:45;;;;;;;5.78;4.08;;;;;;;22.79;22.17;99196.73;2255905;79;21323;-83
2022/05/01 12:18:45;;;;;;;6.03;3.85;;;;;;;22.95;21.99;99190.95;2256358;79;20939;-83
2022/05/01 12:21:48;;;;;;;8.10;4.40;;;;;;;23.09;22.34;99194.02;2256490;79;20904;-84
2022/05/01 12:24:48;;;;;;;4.22;3.60;;;;;;;23.28;22.41;99188.48;2256453;79;20963;-83
2022/05/01 12:27:49;;;;;;;5.67;4.10;;;;;;;23.32;21.74;99185.25;2256228;78;20896;-85
2022/05/01 12:30:50;;;;;;;4.62;3.35;;;;;;;23.12;22.10;99188.59;2256802;79;20892;-84
2022/05/01 12:33:50;;;;;;;3.75;3.37;;;;;;;22.95;21.65;99178.97;2256574;79;21321;-84
2022/05/01 12:36:50;;;;;;;8.13;3.52;;;;;;;22.77;21.82;99177.28;2256810;79;20872;-83
2022/05/01 12:39:51;;;;;;;5.28;4.30;;;;;;;22.55;21.84;99184.20;2256720;79;20864;-84
2022/05/01 12:46:10;;;;;;;4.70;3.40;;;;;;;22.16;22.25;99173.84;2256133;79;21287;-84
2022/05/01 12:49:10;;;;;;;5.35;3.58;;;;;;;22.33;22.33;99171.13;2256298;79;20919;-83
2022/05/01 12:52:11;;;;;;;7.37;3.95;;;;;;;22.22;22.53;99170.99;2256882;79;20864;-84
2022/05/01 12:55:16;;;;;;;5.17;3.52;;;;;;;22.06;22.71;99172.36;2256069;79;20903;-84
2022/05/01 12:58:12;;;;;;;3.83;3.27;;;;;;;21.91;22.97;99166.13;2256290;79;20868;-83
2022/05/01 13:01:12;;;;;;;7.25;3.60;;;;;;;22.14;22.69;99163.70;2255941;79;21319;-83
2022/05/01 13:04:13;;;;;;;6.12;3.85;;;;;;;22.44;22.96;99162.36;2255801;79;20943;-83
2022/05/01 13:07:13;;;;;;;5.30;3.60;;;;;;;22.77;22.78;99161.31;2256037;77;20991;-83
2022/05/01 13:10:13;;;;;;;4.60;3.70;;;;;;;22.79;22.24;99156.81;2256257;79;20894;-83
2022/05/01 13:13:14;;;;;;;5.00;3.60;;;;;;;22.77;21.53;99159.98;2256347;79;20864;-84
2022/05/01 13:16:15;;;;;;;3.62;3.25;;;;;;;22.85;21.90;99151.32;2256184;79;20900;-83
2022/05/01 13:19:15;;;;;;;3.85;3.50;;;;;;;23.04;22.15;99154.23;2255706;79;20931;-83
2022/05/01 13:22:16;;;;;;;5.00;3.40;;;;;;;23.09;21.94;99144.30;2255878;79;20896;-82
2022/05/01 13:25:16;;;;;;;5.83;3.87;;;;;;;23.19;22.04;99146.19;2255885;79;20900;-83
2022/05/01 13:28:16;;;;;;;7.70;3.60;;;;;;;23.23;22.02;99136.30;2256026;79;20904;-83
2022/05/01 13:31:17;;;;;;;5.03;3.27;;;;;;;23.27;21.75;99130.81;2255804;79;21295;-83
2022/05/01 13:34:18;;;;;;;3.65;3.12;;;;;;;23.30;21.70;99127.17;2255531;79;20958;-82
2022/05/01 13:37:19;;;;;;;3.85;3.20;;;;;;;23.28;21.68;99119.70;2224719;79;20974;-84
2022/05/01 13:46:59;;;;;;;3.77;2.87;;;;;;;23.18;21.58;99123.14;2256122;79;20947;-83
2022/05/01 13:49:58;;;;;;;4.53;3.67;;;;;;;23.19;21.59;99120.89;2255943;79;21330;-83
2022/05/01 13:52:58;;;;;;;4.00;3.60;;;;;;;23.22;21.74;99119.91;2256100;79;20923;-83
2022/05/01 13:55:58;;;;;;;4.17;3.20;;;;;;;23.15;21.14;99125.91;2256091;79;20923;-84
2022/05/01 13:58:59;;;;;;;3.90;3.50;;;;;;;22.88;22.07;99119.74;2256195;79;20915;-85
2022/05/01 14:01:59;;;;;;;5.55;3.40;;;;;;;22.85;22.11;99122.50;2256439;79;20939;-83
2022/05/01 14:05:01;;;;;;;4.75;3.60;;;;;;;22.56;21.62;99123.42;2255622;79;20982;-84
2022/05/01 14:08:01;;;;;;;3.95;3.55;;;;;;;22.44;22.32;99117.14;2256337;77;21342;-84
2022/05/01 14:11:01;;;;;;;6.30;3.10;;;;;;;22.40;22.09;99113.70;2255864;78;20939;-84
2022/05/01 14:14:02;;;;;;;5.25;3.60;;;;;;;22.35;22.34;99118.76;2256157;79;20907;-84
2022/05/01 14:17:01;;;;;;;8.00;3.80;;;;;;;22.07;22.72;99119.61;2256208;79;20939;-84
2022/05/01 14:20:02;;;;;;;8.63;3.45;;;;;;;21.81;22.87;99113.71;2256032;79;20900;-85
2022/05/01 14:23:02;;;;;;;7.12;3.62;;;;;;;21.69;22.73;99110.08;2255976;79;20947;-84
2022/05/01 14:26:03;;;;;;;6.35;3.33;;;;;;;21.56;23.13;99113.97;2256682;79;20954;-83
2022/05/01 14:29:03;;;;;;;7.30;6.33;;;;;;;21.43;23.78;99104.16;2256213;79;20927;-84
2022/05/01 14:32:03;;;;;;;5.00;4.50;;;;;;;21.31;23.83;99099.18;2256130;79;20919;-84
2022/05/01 14:35:04;;;;;;;4.28;3.87;;;;;;;21.20;24.64;99104.75;2255896;79;20990;-84
2022/05/01 14:38:05;;;;;;;5.80;5.30;;;;;;;21.19;23.86;99101.68;2256376;79;20871;-83
2022/05/01 14:41:06;;;;;;;6.58;5.80;;;;;;;20.94;23.91;99097.48;2256313;79;20888;-83
2022/05/01 14:44:06;;;;;;;7.60;4.00;;;;;;;21.11;24.44;99097.48;2256154;79;21393;-84
2022/05/01 14:47:07;;;;;;;5.40;4.03;;;;;;;21.34;23.63;99101.75;2256537;79;20946;-82
2022/05/01 14:50:07;;;;;;;7.30;3.55;;;;;;;21.32;23.44;99090.30;2256396;79;21011;-82